createdAt,value
2022-10-28T00:00:53.135Z,101303.31
2022-10-28T00:03:20.715Z,101304.28
2022-10-28T00:05:48.396Z,101299.09
2022-10-28T00:08:16.044Z,101299.25
2022-10-28T00:10:43.572Z,101291.38
2022-10-28T00:13:11.099Z,101298.59
2022-10-28T00:15:38.664Z,101290.53
2022-10-28T00:18:07.668Z,101288.00
2022-10-28T00:20:35.178Z,101285.31
2022-10-28T00:23:02.701Z,101292.66
2022-10-28T00:25:30.233Z,101282.09
2022-10-28T00:27:57.706Z,101288.44
2022-10-28T00:30:25.354Z,101280.41
2022-10-28T00:32:53.732Z,101277.88
2022-10-28T00:35:24.205Z,101287.59
2022-10-28T00:37:53.914Z,101277.72
2022-10-28T00:40:21.424Z,101272.34
2022-10-28T00:42:48.981Z,101273.34
2022-10-28T00:45:16.503Z,101281.28
2022-10-28T00:47:52.477Z,101273.34
2022-10-28T00:50:36.299Z,101273.34
2022-10-28T00:53:07.638Z,101270.84
2022-10-28T00:55:37.222Z,101270.00
2022-10-28T00:58:06.966Z,101265.47
2022-10-28T01:00:34.722Z,101273.53
2022-10-28T01:03:02.364Z,101268.16
2022-10-28T01:05:34.368Z,101267.31
2022-10-28T01:08:04.169Z,101268.16
2022-10-28T01:10:45.367Z,101256.44
2022-10-28T01:13:21.235Z,101260.78
2022-10-28T01:16:05.878Z,101251.78
2022-10-28T01:18:45.424Z,101256.16
2022-10-28T01:21:43.465Z,101247.09
2022-10-28T01:24:24.133Z,101239.06
2022-10-28T01:27:09.253Z,101242.59
2022-10-28T01:29:57.354Z,101239.75
2022-10-28T01:32:33.771Z,101235.22
2022-10-28T01:35:10.261Z,101234.25
2022-10-28T01:37:44.598Z,101235.94
2022-10-28T01:40:17.232Z,101233.09
2022-10-28T01:42:51.863Z,101237.44
2022-10-28T01:45:23.794Z,101230.09
2022-10-28T01:47:57.848Z,101223.44
2022-10-28T01:50:29.604Z,101221.75
2022-10-28T01:53:00.187Z,101218.91
2022-10-28T01:55:31.071Z,101213.53
2022-10-28T01:58:01.548Z,101216.06
2022-10-28T02:00:32.577Z,101216.06
2022-10-28T02:03:01.561Z,101205.34
2022-10-28T02:05:44.109Z,101209.84
2022-10-28T02:08:26.382Z,101201.81
2022-10-28T02:11:07.551Z,101196.63
2022-10-28T02:13:47.880Z,101193.94
2022-10-28T02:16:25.070Z,101199.63
2022-10-28T02:19:03.465Z,101205.97
2022-10-28T02:21:43.198Z,101207.81
2022-10-28T02:24:19.440Z,101206.28
2022-10-28T02:26:52.863Z,101206.59
2022-10-28T02:29:28.841Z,101203.22
2022-10-28T02:32:02.538Z,101199.03
2022-10-28T02:34:34.546Z,101205.53
2022-10-28T02:37:07.590Z,101201.50
2022-10-28T02:39:41.307Z,101193.06
2022-10-28T02:42:13.935Z,101193.53
2022-10-28T02:44:46.793Z,101188.63
2022-10-28T02:47:19.028Z,101190.78
2022-10-28T02:49:54.535Z,101182.19
2022-10-28T02:52:25.689Z,101181.81
2022-10-28T02:54:56.606Z,101175.06
2022-10-28T02:57:26.401Z,101176.91
2022-10-28T02:59:55.333Z,101173.16
2022-10-28T03:02:23.082Z,101160.75
2022-10-28T03:04:52.336Z,101173.59
2022-10-28T03:07:19.949Z,101165.16
2022-10-28T03:09:47.771Z,101174.22
2022-10-28T03:12:15.492Z,101162.13
2022-10-28T03:14:43.350Z,101160.59
2022-10-28T03:17:10.994Z,101159.06
2022-10-28T03:19:38.581Z,101162.00
2022-10-28T03:22:07.471Z,101162.16
2022-10-28T03:24:35.190Z,101165.00
2022-10-28T03:27:02.682Z,101163.44
2022-10-28T03:29:30.292Z,101156.56
2022-10-28T03:31:57.852Z,101158.56
2022-10-28T03:34:25.477Z,101153.50
2022-10-28T03:36:53.005Z,101153.66
2022-10-28T03:39:21.904Z,101155.78
2022-10-28T03:41:49.516Z,101155.09
2022-10-28T03:44:17.080Z,101142.84
2022-10-28T03:46:44.665Z,101135.81
2022-10-28T03:49:12.226Z,101136.97
2022-10-28T03:51:39.734Z,101133.72
2022-10-28T03:54:07.424Z,101142.06
2022-10-28T03:56:36.326Z,101142.34
2022-10-28T03:59:03.883Z,101149.88
2022-10-28T04:01:31.470Z,101142.13
2022-10-28T04:03:59.103Z,101135.38
2022-10-28T04:06:26.671Z,101147.22
2022-10-28T04:08:54.237Z,101138.63
2022-10-28T04:11:22.067Z,101138.94
2022-10-28T04:13:51.195Z,101137.56
2022-10-28T04:16:18.829Z,101137.00
2022-10-28T04:18:46.417Z,101132.09
2022-10-28T04:21:13.936Z,101123.69
2022-10-28T04:23:41.555Z,101132.97
2022-10-28T04:26:09.092Z,101134.25
2022-10-28T04:28:36.675Z,101132.03
2022-10-28T04:31:05.857Z,101129.78
2022-10-28T04:33:33.667Z,101137.13
2022-10-28T04:36:01.173Z,101134.03
2022-10-28T04:38:28.733Z,101131.66
2022-10-28T04:40:56.669Z,101130.13
2022-10-28T04:43:24.213Z,101134.91
2022-10-28T04:45:51.772Z,101130.81
2022-10-28T04:48:21.126Z,101133.81
2022-10-28T04:50:48.876Z,101134.06
2022-10-28T04:53:16.506Z,101133.53
2022-10-28T04:55:44.025Z,101134.78
2022-10-28T04:58:11.593Z,101135.06
2022-10-28T05:00:39.113Z,101139.00
2022-10-28T05:03:07.123Z,101135.66
2022-10-28T05:05:35.938Z,101138.75
2022-10-28T05:08:03.503Z,101133.53
2022-10-28T05:10:31.369Z,101131.28
2022-10-28T05:12:59.215Z,101129.72
2022-10-28T05:15:26.997Z,101132.56
2022-10-28T05:17:54.882Z,101131.03
2022-10-28T05:20:22.661Z,101128.09
2022-10-28T05:22:53.766Z,101132.00
2022-10-28T05:25:22.502Z,101127.78
2022-10-28T05:27:50.484Z,101131.72
2022-10-28T05:30:18.441Z,101133.81
2022-10-28T05:32:47.474Z,101131.47
2022-10-28T05:35:16.853Z,101131.72
2022-10-28T05:37:44.914Z,101144.38
2022-10-28T05:40:14.240Z,101144.53
2022-10-28T05:42:42.628Z,101153.63
2022-10-28T05:45:10.766Z,101143.09
2022-10-28T05:47:43.002Z,101148.59
2022-10-28T05:50:11.306Z,101140.69
2022-10-28T05:52:39.077Z,101135.50
2022-10-28T05:55:07.560Z,101138.47
2022-10-28T05:57:37.121Z,101135.06
2022-10-28T06:00:05.942Z,101134.53
2022-10-28T06:02:40.143Z,101138.16
2022-10-28T06:05:08.543Z,101137.59
2022-10-28T06:07:36.369Z,101139.44
2022-10-28T06:10:05.492Z,101136.03
2022-10-28T06:12:31.680Z,101136.03
2022-10-28T06:15:01.089Z,101145.03
2022-10-28T06:17:28.732Z,101138.84
2022-10-28T06:19:56.286Z,101145.03
2022-10-28T06:22:23.818Z,101141.38
2022-10-28T06:24:51.341Z,101149.28
2022-10-28T06:27:18.851Z,101146.59
2022-10-28T06:29:46.433Z,101150.13
2022-10-28T06:32:15.418Z,101148.28
2022-10-28T06:34:43.125Z,101156.00
2022-10-28T06:37:10.711Z,101158.66
2022-10-28T06:39:38.692Z,101160.22
2022-10-28T06:42:06.250Z,101162.59
2022-10-28T06:44:33.731Z,101167.53
2022-10-28T06:47:02.833Z,101159.25
2022-10-28T06:49:31.694Z,101160.53
2022-10-28T06:51:59.249Z,101168.09
2022-10-28T06:54:26.761Z,101169.53
2022-10-28T06:56:54.315Z,101166.28
2022-10-28T06:59:21.904Z,101163.91
2022-10-28T07:01:49.543Z,101163.34
2022-10-28T07:04:17.221Z,101165.28
2022-10-28T07:06:48.664Z,101168.28
2022-10-28T07:09:19.001Z,101173.72
2022-10-28T07:11:53.579Z,101171.22
2022-10-28T07:14:22.777Z,101174.56
2022-10-28T07:16:50.568Z,101183.28
2022-10-28T07:19:22.493Z,101180.59
2022-10-28T07:21:51.714Z,101177.34
2022-10-28T07:24:19.264Z,101181.94
2022-10-28T07:26:48.459Z,101175.03
2022-10-28T07:29:16.553Z,101182.34
2022-10-28T07:31:44.518Z,101185.09
2022-10-28T07:34:12.115Z,101188.88
2022-10-28T07:36:39.664Z,101191.50
2022-10-28T07:39:08.540Z,101186.25
2022-10-28T07:41:38.535Z,101182.00
2022-10-28T07:44:06.738Z,101185.91
2022-10-28T07:46:34.892Z,101186.84
2022-10-28T07:49:02.478Z,101185.97
2022-10-28T07:51:30.069Z,101195.63
2022-10-28T07:53:58.370Z,101191.06
2022-10-28T07:56:27.399Z,101196.34
2022-10-28T07:58:55.008Z,101201.78
2022-10-28T08:01:23.136Z,101200.88
2022-10-28T08:03:50.812Z,101190.91
2022-10-28T08:06:20.301Z,101195.19
2022-10-28T08:08:49.344Z,101196.78
2022-10-28T08:11:18.847Z,101196.91
2022-10-28T08:13:48.053Z,101198.34
2022-10-28T08:16:15.927Z,101195.44
2022-10-28T08:18:45.963Z,101201.38
2022-10-28T08:21:14.790Z,101202.06
2022-10-28T08:23:46.339Z,101198.28
2022-10-28T08:26:14.806Z,101194.31
2022-10-28T08:28:43.049Z,101189.66
2022-10-28T08:31:12.753Z,101191.34
2022-10-28T08:33:42.497Z,101190.22
2022-10-28T08:36:11.564Z,101183.88
2022-10-28T08:38:44.938Z,101180.72
2022-10-28T08:41:25.474Z,101185.81
2022-10-28T08:44:06.503Z,101185.50
2022-10-28T08:46:51.420Z,101182.13
2022-10-28T08:49:22.715Z,101183.31
2022-10-28T08:51:57.222Z,101181.31
2022-10-28T08:54:31.576Z,101175.25
2022-10-28T08:57:02.095Z,101171.56
2022-10-28T08:59:33.165Z,101178.94
2022-10-28T09:02:12.775Z,101181.13
2022-10-28T09:04:43.327Z,101179.56
2022-10-28T09:07:17.433Z,101175.34
2022-10-28T09:09:45.727Z,101181.56
2022-10-28T09:12:26.209Z,101171.81
2022-10-28T09:15:12.835Z,101175.50
2022-10-28T09:17:51.386Z,101174.16
2022-10-28T09:20:22.062Z,101177.66
2022-10-28T09:22:57.166Z,101180.66
2022-10-28T09:25:31.242Z,101170.88
2022-10-28T09:28:17.668Z,101167.50
2022-10-28T09:30:57.644Z,101165.78
2022-10-28T09:33:44.215Z,101172.97
2022-10-28T09:36:16.735Z,101165.84
2022-10-28T09:38:45.682Z,101162.13
2022-10-28T09:41:18.546Z,101164.09
2022-10-28T09:43:49.974Z,101160.31
2022-10-28T09:46:19.122Z,101154.34
2022-10-28T09:48:49.822Z,101152.56
2022-10-28T09:51:27.361Z,101159.03
2022-10-28T09:53:58.191Z,101157.75
2022-10-28T09:56:27.260Z,101160.22
2022-10-28T09:58:56.657Z,101171.59
2022-10-28T10:01:24.630Z,101162.19
2022-10-28T10:03:53.620Z,101166.84
2022-10-28T10:06:26.812Z,101175.56
2022-10-28T10:08:56.124Z,101173.78
2022-10-28T10:11:32.251Z,101174.75
2022-10-28T10:14:07.628Z,101169.06
2022-10-28T10:16:42.233Z,101161.50
2022-10-28T10:19:12.048Z,101165.97
2022-10-28T10:21:43.734Z,101164.03
2022-10-28T10:24:25.436Z,101160.72
2022-10-28T10:26:54.127Z,101168.94
2022-10-28T10:29:22.957Z,101169.88
2022-10-28T10:32:05.468Z,101167.88
2022-10-28T10:34:34.645Z,101168.78
2022-10-28T10:39:39.830Z,101149.41
2022-10-28T10:42:17.260Z,101150.50
2022-10-28T10:44:44.871Z,101158.50
2022-10-28T10:47:20.580Z,101156.50
2022-10-28T10:49:49.743Z,101163.56
2022-10-28T10:52:21.284Z,101161.34
2022-10-28T10:54:59.083Z,101161.75
2022-10-28T10:57:27.935Z,101163.91
2022-10-28T10:59:57.472Z,101166.84
2022-10-28T11:02:28.747Z,101162.16
2022-10-28T11:05:02.109Z,101162.81
2022-10-28T11:07:32.702Z,101158.22
2022-10-28T11:10:00.845Z,101156.97
2022-10-28T11:12:31.817Z,101154.94
2022-10-28T11:15:01.194Z,101157.66
2022-10-28T11:20:01.440Z,101155.78
2022-10-28T11:22:44.026Z,101153.69
2022-10-28T11:25:30.884Z,101157.91
2022-10-28T11:28:12.150Z,101149.78
2022-10-28T11:30:54.067Z,101143.97
2022-10-28T11:33:31.050Z,101139.00
2022-10-28T11:36:10.234Z,101136.38
2022-10-28T11:38:55.207Z,101127.84
2022-10-28T11:41:32.314Z,101131.00
2022-10-28T11:44:04.958Z,101130.81
2022-10-28T11:46:50.505Z,101128.56
2022-10-28T11:49:46.881Z,101128.78
2022-10-28T11:52:28.688Z,101124.63
2022-10-28T11:55:09.142Z,101118.84
2022-10-28T11:57:52.004Z,101113.00
2022-10-28T12:00:32.794Z,101112.41
2022-10-28T12:03:15.082Z,101113.91
2022-10-28T12:05:48.067Z,101119.75
2022-10-28T12:08:36.011Z,101104.78
2022-10-28T12:11:14.387Z,101107.91
2022-10-28T12:13:51.838Z,101106.69
2022-10-28T12:16:30.851Z,101101.50
2022-10-28T12:19:02.689Z,101091.06
2022-10-28T12:24:15.377Z,101090.72
2022-10-28T12:26:46.683Z,101091.16
2022-10-28T12:29:20.122Z,101083.66
2022-10-28T12:31:51.139Z,101073.44
2022-10-28T12:34:23.631Z,101072.84
2022-10-28T12:36:57.824Z,101080.38
2022-10-28T12:39:32.547Z,101073.72
2022-10-28T12:42:05.711Z,101071.44
2022-10-28T12:44:34.933Z,101076.44
2022-10-28T12:47:15.744Z,101069.78
2022-10-28T12:49:51.999Z,101071.25
2022-10-28T12:52:27.986Z,101066.25
2022-10-28T12:55:02.584Z,101053.53
2022-10-28T12:57:34.868Z,101052.94
2022-10-28T13:00:06.701Z,101047.50
2022-10-28T13:02:41.322Z,101051.66
2022-10-28T13:05:19.136Z,101051.66
2022-10-28T13:08:02.054Z,101051.06
2022-10-28T13:10:38.293Z,101056.47
2022-10-28T13:13:19.304Z,101053.53
2022-10-28T13:16:04.367Z,101045.84
2022-10-28T13:19:15.849Z,101047.91
2022-10-28T13:22:00.738Z,101047.72
2022-10-28T13:24:35.898Z,101045.63
2022-10-28T13:27:06.402Z,101043.75
2022-10-28T13:29:35.981Z,101047.94
2022-10-28T13:32:03.843Z,101044.19
2022-10-28T13:34:34.365Z,101049.19
2022-10-28T13:37:04.570Z,101047.13
2022-10-28T13:39:45.311Z,101046.69
2022-10-28T13:42:46.448Z,101042.69
2022-10-28T13:45:52.044Z,101042.91
2022-10-28T13:48:54.766Z,101051.88
2022-10-28T13:51:45.069Z,101048.56
2022-10-28T13:54:26.412Z,101048.34
2022-10-28T13:56:55.550Z,101059.63
2022-10-28T13:59:42.322Z,101056.69
2022-10-28T14:02:40.477Z,101058.38
2022-10-28T14:05:10.405Z,101064.44
2022-10-28T14:07:41.833Z,101063.19
2022-10-28T14:10:24.228Z,101064.66
2022-10-28T14:12:55.920Z,101063.00
2022-10-28T14:15:29.147Z,101061.97
2022-10-28T14:18:15.939Z,101061.97
2022-10-28T14:20:58.906Z,101061.13
2022-10-28T14:24:06.464Z,101059.25
2022-10-28T14:27:18.139Z,101057.59
2022-10-28T14:29:49.361Z,101065.91
2022-10-28T14:32:45.288Z,101067.38
2022-10-28T14:35:24.973Z,101066.09
2022-10-28T14:38:20.562Z,101069.63
2022-10-28T14:40:51.631Z,101069.03
2022-10-28T14:43:42.756Z,101069.25
2022-10-28T14:46:25.632Z,101074.03
2022-10-28T14:48:54.252Z,101081.53
2022-10-28T14:51:26.024Z,101080.06
2022-10-28T14:53:57.917Z,101073.41
2022-10-28T14:56:27.760Z,101089.03
2022-10-28T14:58:58.786Z,101084.03
2022-10-28T15:01:30.694Z,101080.69
2022-10-28T15:04:01.791Z,101090.50
2022-10-28T15:06:37.341Z,101099.88
2022-10-28T15:09:12.026Z,101098.81
2022-10-28T15:11:44.801Z,101097.53
2022-10-28T15:14:24.504Z,101105.66
2022-10-28T15:16:53.922Z,101105.66
2022-10-28T15:19:23.888Z,101106.09
2022-10-28T15:22:16.779Z,101106.69
2022-10-28T15:24:54.242Z,101107.50
2022-10-28T15:27:23.493Z,101112.91
2022-10-28T15:29:51.623Z,101117.69
2022-10-28T15:32:29.413Z,101115.13
2022-10-28T15:34:57.187Z,101119.47
2022-10-28T15:37:28.210Z,101119.25
2022-10-28T15:40:13.754Z,101109.03
2022-10-28T15:42:43.073Z,101125.03
2022-10-28T15:45:18.781Z,101126.47
2022-10-28T15:47:48.272Z,101132.69
2022-10-28T15:50:29.104Z,101142.84
2022-10-28T15:53:23.439Z,101150.13
2022-10-28T15:56:10.204Z,101152.66
2022-10-28T15:58:40.093Z,101159.69
2022-10-28T16:01:10.845Z,101171.75
2022-10-28T16:03:45.555Z,101165.47
2022-10-28T16:06:25.765Z,101166.94
2022-10-28T16:09:02.495Z,101169.78
2022-10-28T16:11:31.668Z,101166.88
2022-10-28T16:14:02.068Z,101173.91
2022-10-28T16:16:32.542Z,101179.94
2022-10-28T16:19:09.519Z,101179.69
2022-10-28T16:21:39.177Z,101178.16
2022-10-28T16:24:07.333Z,101184.34
2022-10-28T16:26:34.980Z,101180.38
2022-10-28T16:29:02.836Z,101195.31
2022-10-28T16:31:32.027Z,101179.03
2022-10-28T16:34:00.127Z,101189.03
2022-10-28T16:36:30.308Z,101194.75
2022-10-28T16:38:57.949Z,101196.81
2022-10-28T16:41:25.724Z,101204.66
2022-10-28T16:43:53.839Z,101202.53
2022-10-28T16:46:21.500Z,101201.91
2022-10-28T16:48:49.055Z,101204.97
2022-10-28T16:51:17.510Z,101211.81
2022-10-28T16:53:49.748Z,101210.13
2022-10-28T16:56:18.613Z,101221.69
2022-10-28T16:58:46.705Z,101230.41
2022-10-28T17:01:18.238Z,101241.59
2022-10-28T17:03:45.996Z,101240.47
2022-10-28T17:06:13.560Z,101241.69
2022-10-28T17:14:02.734Z,101246.72
2022-10-28T17:16:30.414Z,101246.25
2022-10-28T17:18:58.761Z,101259.31
2022-10-28T17:21:26.632Z,101261.34
2022-10-28T17:23:54.159Z,101257.38
2022-10-28T17:26:21.807Z,101259.78
2022-10-28T17:28:53.191Z,101265.75
2022-10-28T17:31:24.856Z,101263.41
2022-10-28T17:33:54.503Z,101264.81
2022-10-28T17:36:23.009Z,101266.84
2022-10-28T17:38:50.681Z,101271.13
2022-10-28T17:41:19.167Z,101269.84
2022-10-28T17:43:46.758Z,101273.09
2022-10-28T17:46:15.625Z,101278.19
2022-10-28T17:48:43.228Z,101276.22
2022-10-28T17:51:10.820Z,101284.03
2022-10-28T17:53:38.491Z,101283.75
2022-10-28T17:56:07.691Z,101285.31
2022-10-28T17:58:35.340Z,101289.56
2022-10-28T18:01:04.729Z,101297.38
2022-10-28T18:03:38.191Z,101305.16
2022-10-28T18:06:08.514Z,101306.72
2022-10-28T18:08:38.237Z,101312.84
2022-10-28T18:11:07.473Z,101312.72
2022-10-28T18:13:36.882Z,101317.16
2022-10-28T18:16:05.705Z,101329.47
2022-10-28T18:18:40.875Z,101325.69
2022-10-28T18:21:11.348Z,101320.31
2022-10-28T18:23:40.748Z,101320.00
2022-10-28T18:26:11.642Z,101327.97
2022-10-28T18:28:40.608Z,101330.19
2022-10-28T18:31:10.691Z,101321.94
2022-10-28T18:33:40.262Z,101318.28
2022-10-28T18:36:12.015Z,101319.81
2022-10-28T18:38:39.641Z,101327.44
2022-10-28T18:41:10.937Z,101324.72
2022-10-28T18:43:38.602Z,101332.47
2022-10-28T18:46:06.491Z,101346.63
2022-10-28T18:48:34.273Z,101335.91
2022-10-28T18:51:06.492Z,101339.28
2022-10-28T18:53:37.316Z,101334.59
2022-10-28T18:56:06.083Z,101337.97
2022-10-28T18:58:34.458Z,101327.38
2022-10-28T19:01:07.021Z,101325.53
2022-10-28T19:03:34.809Z,101333.47
2022-10-28T19:06:05.525Z,101342.41
2022-10-28T19:08:33.372Z,101346.75
2022-10-28T19:11:02.321Z,101342.91
2022-10-28T19:13:30.266Z,101342.72
2022-10-28T19:15:59.384Z,101356.66
2022-10-28T19:18:27.036Z,101366.25
2022-10-28T19:20:57.084Z,101364.38
2022-10-28T19:23:26.061Z,101370.59
2022-10-28T19:25:56.903Z,101382.69
2022-10-28T19:28:26.510Z,101378.66
2022-10-28T19:31:01.752Z,101381.31
2022-10-28T19:33:29.877Z,101387.34
2022-10-28T19:36:02.468Z,101379.09
2022-10-28T19:38:36.136Z,101391.34
2022-10-28T19:41:08.342Z,101382.91
2022-10-28T19:43:36.853Z,101381.59
2022-10-28T19:46:10.137Z,101373.16
2022-10-28T19:48:38.189Z,101390.78
2022-10-28T19:51:05.945Z,101389.56
2022-10-28T19:53:35.618Z,101396.28
2022-10-28T19:56:04.292Z,101405.69
2022-10-28T19:58:33.292Z,101402.63
2022-10-28T20:01:02.676Z,101407.59
2022-10-28T20:03:34.346Z,101418.66
2022-10-28T20:06:07.215Z,101424.53
2022-10-28T20:08:37.487Z,101432.03
2022-10-28T20:11:06.785Z,101435.19
2022-10-28T20:13:35.208Z,101428.31
2022-10-28T20:16:05.057Z,101424.91
2022-10-28T20:18:33.675Z,101423.41
2022-10-28T20:21:04.321Z,101425.53
2022-10-28T20:23:32.259Z,101429.41
2022-10-28T20:26:01.092Z,101431.72
2022-10-28T20:28:28.971Z,101429.50
2022-10-28T20:30:58.374Z,101439.56
2022-10-28T20:33:26.589Z,101434.50
2022-10-28T20:35:55.401Z,101435.50
2022-10-28T20:38:23.781Z,101426.75
2022-10-28T20:40:54.915Z,101434.13
2022-10-28T20:43:26.221Z,101440.47
2022-10-28T20:45:55.795Z,101440.81
2022-10-28T20:48:24.139Z,101444.78
2022-10-28T20:50:53.474Z,101449.47
2022-10-28T20:53:23.200Z,101451.31
2022-10-28T20:55:52.393Z,101455.84
2022-10-28T20:58:21.383Z,101454.31
2022-10-28T21:00:51.025Z,101451.94
2022-10-28T21:03:18.603Z,101460.16
2022-10-28T21:05:46.348Z,101456.75
2022-10-28T21:08:14.268Z,101455.09
2022-10-28T21:10:41.939Z,101454.25
2022-10-28T21:13:09.632Z,101447.31
2022-10-28T21:15:39.055Z,101455.69
2022-10-28T21:18:09.096Z,101464.03
2022-10-28T21:20:37.733Z,101485.00
2022-10-28T21:23:06.276Z,101492.47
2022-10-28T21:25:34.484Z,101485.59
2022-10-28T21:28:02.158Z,101487.56
2022-10-28T21:30:30.006Z,101480.53
2022-10-28T21:32:57.921Z,101477.00
2022-10-28T21:35:27.000Z,101476.16
2022-10-28T21:37:56.090Z,101479.00
2022-10-28T21:40:24.419Z,101478.44
2022-10-28T21:42:52.118Z,101469.72
2022-10-28T21:45:19.749Z,101474.41
2022-10-28T21:47:47.394Z,101481.72
2022-10-28T21:50:15.612Z,101489.06
2022-10-28T21:52:44.625Z,101487.38
2022-10-28T21:55:20.342Z,101483.97
2022-10-28T21:57:48.440Z,101489.34
2022-10-28T22:00:16.433Z,101491.19
2022-10-28T22:02:44.031Z,101490.19
2022-10-28T22:05:11.680Z,101490.19
2022-10-28T22:07:39.212Z,101491.06
2022-10-28T22:10:08.729Z,101493.75
2022-10-28T22:12:36.276Z,101498.94
2022-10-28T22:15:04.301Z,101486.53
2022-10-28T22:17:31.834Z,101499.94
2022-10-28T22:19:59.359Z,101502.63
2022-10-28T22:22:27.272Z,101498.13
2022-10-28T22:24:54.765Z,101504.31
2022-10-28T22:27:23.692Z,101496.16
2022-10-28T22:29:51.310Z,101502.06
2022-10-28T22:32:18.840Z,101494.84
2022-10-28T22:34:46.390Z,101501.91
2022-10-28T22:37:13.900Z,101502.75
2022-10-28T22:39:41.648Z,101502.59
2022-10-28T22:42:10.031Z,101509.78
2022-10-28T22:44:38.898Z,101509.94
2022-10-28T22:47:06.513Z,101505.59
2022-10-28T22:49:34.019Z,101505.75
2022-10-28T22:52:01.583Z,101513.91
2022-10-28T22:54:29.095Z,101508.56
2022-10-28T22:56:56.590Z,101509.69
2022-10-28T22:59:24.393Z,101519.44
2022-10-28T23:01:53.426Z,101531.13
2022-10-28T23:04:21.113Z,101523.94
2022-10-28T23:06:48.664Z,101520.28
2022-10-28T23:09:16.196Z,101512.25
2022-10-28T23:11:43.725Z,101513.09
2022-10-28T23:14:11.262Z,101510.41
2022-10-28T23:16:39.171Z,101511.13
2022-10-28T23:19:08.025Z,101518.28
2022-10-28T23:21:35.581Z,101512.09
2022-10-28T23:24:03.193Z,101515.59
2022-10-28T23:26:32.215Z,101516.47
2022-10-28T23:29:00.834Z,101531.84
2022-10-28T23:31:28.733Z,101527.50
2022-10-28T23:33:58.050Z,101528.63
2022-10-28T23:36:27.031Z,101534.94
2022-10-28T23:38:57.262Z,101534.94
2022-10-28T23:41:24.823Z,101533.09
2022-10-28T23:43:52.569Z,101533.97
2022-10-28T23:46:21.473Z,101542.16
2022-10-28T23:48:49.111Z,101540.47
2022-10-28T23:51:16.820Z,101540.47
2022-10-28T23:53:45.687Z,101542.47
2022-10-28T23:56:13.192Z,101546.16
2022-10-28T23:58:40.696Z,101556.03
